createdAt,value
2023-05-07T00:01:20.347Z,0.80
2023-05-07T00:03:49.241Z,1.00
2023-05-07T00:06:16.612Z,0.90
2023-05-07T00:08:43.927Z,0.80
2023-05-07T00:11:12.001Z,1.10
2023-05-07T00:13:39.417Z,0.90
2023-05-07T00:16:27.254Z,1.10
2023-05-07T00:18:55.210Z,0.70
2023-05-07T00:21:32.244Z,0.80
2023-05-07T00:23:59.644Z,0.80
2023-05-07T00:26:29.709Z,0.90
2023-05-07T00:28:56.863Z,1.00
2023-05-07T00:31:46.057Z,1.00
2023-05-07T00:34:30.780Z,0.80
2023-05-07T00:36:58.474Z,1.00
2023-05-07T00:39:26.472Z,1.00
2023-05-07T00:41:54.225Z,0.80
2023-05-07T00:44:21.293Z,0.90
2023-05-07T00:46:50.430Z,0.90
2023-05-07T00:49:18.022Z,1.10
2023-05-07T00:51:45.818Z,1.00
2023-05-07T00:54:13.492Z,0.70
2023-05-07T00:56:40.981Z,0.80
2023-05-07T00:59:08.228Z,0.90
2023-05-07T01:01:37.575Z,0.90
2023-05-07T01:04:04.848Z,1.00
2023-05-07T01:06:34.138Z,0.90
2023-05-07T01:09:03.362Z,0.70
2023-05-07T01:11:31.569Z,1.00
2023-05-07T01:13:59.920Z,0.90
2023-05-07T01:16:27.959Z,0.80
2023-05-07T01:19:15.020Z,1.40
2023-05-07T01:21:48.634Z,0.80
2023-05-07T01:24:17.116Z,1.00
2023-05-07T01:26:45.415Z,0.90
2023-05-07T01:29:15.420Z,1.00
2023-05-07T01:31:44.798Z,1.00
2023-05-07T01:34:13.919Z,0.90
2023-05-07T01:36:44.921Z,1.00
2023-05-07T01:39:14.017Z,0.90
2023-05-07T01:41:41.976Z,0.90
2023-05-07T01:44:10.757Z,0.90
2023-05-07T01:46:39.106Z,1.20
2023-05-07T01:49:06.743Z,0.80
2023-05-07T01:51:34.973Z,0.90
2023-05-07T01:54:03.726Z,0.90
2023-05-07T01:56:32.442Z,1.00
2023-05-07T01:59:02.510Z,1.00
2023-05-07T02:01:31.509Z,0.90
2023-05-07T02:03:59.802Z,1.20
2023-05-07T02:06:48.036Z,1.00
2023-05-07T02:09:21.096Z,1.10
2023-05-07T02:11:49.731Z,1.30
2023-05-07T02:14:20.607Z,1.20
2023-05-07T02:16:48.581Z,1.10
2023-05-07T02:19:18.698Z,1.10
2023-05-07T02:21:45.866Z,1.80
2023-05-07T02:24:14.212Z,1.30
2023-05-07T02:26:42.266Z,1.00
2023-05-07T02:29:13.815Z,1.00
2023-05-07T02:31:42.224Z,1.10
2023-05-07T02:34:09.341Z,1.20
2023-05-07T02:36:37.452Z,1.30
2023-05-07T02:39:25.244Z,1.20
2023-05-07T02:41:53.032Z,1.20
2023-05-07T02:44:24.080Z,1.20
2023-05-07T02:46:54.022Z,1.30
2023-05-07T02:49:23.212Z,0.90
2023-05-07T02:51:52.347Z,1.00
2023-05-07T02:54:22.608Z,1.40
2023-05-07T02:56:50.478Z,1.40
2023-05-07T02:59:17.984Z,1.10
2023-05-07T03:01:45.935Z,1.30
2023-05-07T03:04:22.251Z,1.20
2023-05-07T03:06:49.779Z,1.10
2023-05-07T03:09:21.892Z,1.20
2023-05-07T03:11:50.292Z,1.20
2023-05-07T03:14:17.439Z,1.30
2023-05-07T03:17:06.614Z,1.40
2023-05-07T03:19:35.133Z,1.30
2023-05-07T03:22:03.049Z,1.60
2023-05-07T03:24:32.846Z,1.50
2023-05-07T03:27:01.607Z,1.50
2023-05-07T03:29:30.219Z,1.20
2023-05-07T03:32:06.386Z,1.60
2023-05-07T03:34:35.899Z,1.40
2023-05-07T03:37:04.501Z,1.30
2023-05-07T03:39:32.734Z,1.60
2023-05-07T03:42:23.030Z,1.40
2023-05-07T03:44:51.230Z,1.60
2023-05-07T03:47:19.849Z,1.70
2023-05-07T03:49:48.583Z,1.50
2023-05-07T03:52:35.084Z,2.00
2023-05-07T03:55:03.613Z,1.60
2023-05-07T03:57:33.074Z,1.50
2023-05-07T04:00:04.844Z,1.60
2023-05-07T04:02:34.890Z,1.70
2023-05-07T04:05:02.292Z,1.60
2023-05-07T04:07:30.429Z,1.50
2023-05-07T04:09:58.881Z,1.60
2023-05-07T04:12:48.581Z,1.60
2023-05-07T04:15:25.483Z,1.20
2023-05-07T04:20:43.486Z,1.90
2023-05-07T04:23:12.299Z,1.20
2023-05-07T04:25:42.878Z,1.50
2023-05-07T04:28:19.880Z,1.70
2023-05-07T04:30:50.486Z,1.20
2023-05-07T04:33:18.570Z,1.40
2023-05-07T04:35:46.764Z,1.40
2023-05-07T04:38:15.729Z,1.50
2023-05-07T04:40:43.795Z,1.30
2023-05-07T04:43:21.950Z,1.20
2023-05-07T04:45:55.315Z,1.70
2023-05-07T04:48:25.944Z,1.60
2023-05-07T04:51:15.032Z,2.00
2023-05-07T04:53:47.665Z,1.50
2023-05-07T04:56:16.197Z,1.70
2023-05-07T04:58:45.743Z,2.10
2023-05-07T05:01:13.762Z,1.80
2023-05-07T05:04:04.988Z,1.90
2023-05-07T05:06:33.246Z,1.60
2023-05-07T05:09:05.046Z,1.20
2023-05-07T05:11:32.639Z,1.40
2023-05-07T05:14:01.277Z,1.50
2023-05-07T05:16:28.708Z,2.00
2023-05-07T05:19:13.278Z,1.10
2023-05-07T05:21:41.397Z,1.70
2023-05-07T05:24:10.416Z,1.50
2023-05-07T05:26:38.727Z,1.50
2023-05-07T05:29:06.960Z,1.40
2023-05-07T05:31:34.437Z,1.40
2023-05-07T05:34:03.216Z,2.00
2023-05-07T05:36:31.189Z,1.30
2023-05-07T05:38:59.413Z,1.50
2023-05-07T05:41:39.878Z,1.10
2023-05-07T05:44:27.822Z,1.60
2023-05-07T05:46:58.199Z,1.40
2023-05-07T05:49:29.493Z,1.00
2023-05-07T05:52:07.983Z,1.50
2023-05-07T05:54:35.919Z,1.20
2023-05-07T05:57:06.330Z,1.10
2023-05-07T05:59:34.127Z,1.20
2023-05-07T06:02:05.110Z,0.90
2023-05-07T06:04:35.159Z,1.20
2023-05-07T06:07:07.024Z,1.10
2023-05-07T06:09:34.478Z,1.20
2023-05-07T06:12:10.707Z,1.70
2023-05-07T06:14:46.202Z,1.20
2023-05-07T06:17:21.521Z,1.00
2023-05-07T06:19:50.013Z,0.80
2023-05-07T06:22:19.305Z,1.10
2023-05-07T06:24:48.287Z,1.10
2023-05-07T06:27:15.848Z,1.00
2023-05-07T06:29:45.267Z,1.10
2023-05-07T06:32:15.739Z,0.90
2023-05-07T06:34:45.805Z,1.00
2023-05-07T06:37:13.874Z,1.20
2023-05-07T06:40:08.444Z,1.20
2023-05-07T06:42:42.196Z,1.10
2023-05-07T06:45:32.196Z,0.90
2023-05-07T06:48:00.513Z,1.30
2023-05-07T06:50:29.386Z,0.80
2023-05-07T06:52:59.210Z,0.80
2023-05-07T06:55:30.025Z,1.00
2023-05-07T06:58:01.341Z,1.00
2023-05-07T07:00:29.115Z,1.20
2023-05-07T07:05:30.289Z,1.10
2023-05-07T07:07:59.884Z,0.80
2023-05-07T07:10:28.742Z,1.10
2023-05-07T07:12:57.946Z,0.80
2023-05-07T07:15:27.080Z,0.90
2023-05-07T07:20:23.607Z,1.00
2023-05-07T07:22:52.591Z,1.20
2023-05-07T07:25:23.155Z,1.10
2023-05-07T07:27:52.123Z,0.90
2023-05-07T07:30:19.599Z,0.80
2023-05-07T07:32:50.017Z,1.20
2023-05-07T07:35:18.084Z,1.70
2023-05-07T07:37:46.462Z,1.40
2023-05-07T07:40:15.509Z,1.00
2023-05-07T07:42:44.134Z,1.40
2023-05-07T07:45:14.395Z,1.10
2023-05-07T07:47:50.133Z,1.10
2023-05-07T07:50:28.069Z,0.90
2023-05-07T07:53:04.429Z,1.30
2023-05-07T07:55:32.985Z,1.30
2023-05-07T07:58:01.624Z,1.00
2023-05-07T08:00:30.884Z,1.20
2023-05-07T08:03:01.265Z,1.10
2023-05-07T08:05:39.450Z,1.70
2023-05-07T08:08:08.758Z,1.10
2023-05-07T08:10:39.679Z,1.00
2023-05-07T08:13:12.502Z,1.00
2023-05-07T08:15:42.656Z,1.00
2023-05-07T08:18:11.372Z,1.20
2023-05-07T08:20:44.061Z,1.00
2023-05-07T08:23:16.910Z,1.60
2023-05-07T08:25:46.269Z,1.20
2023-05-07T08:28:13.819Z,0.90
2023-05-07T08:30:42.675Z,1.00
2023-05-07T08:33:17.904Z,1.00
2023-05-07T08:35:48.904Z,1.00
2023-05-07T08:38:16.270Z,1.10
2023-05-07T08:40:45.758Z,1.10
2023-05-07T08:43:17.317Z,1.20
2023-05-07T08:45:47.427Z,1.20
2023-05-07T08:48:20.821Z,0.80
2023-05-07T08:50:54.617Z,1.30
2023-05-07T08:53:22.791Z,1.30
2023-05-07T08:55:50.736Z,1.10
2023-05-07T08:58:19.665Z,1.00
2023-05-07T09:00:47.680Z,1.00
2023-05-07T09:03:16.591Z,1.10
2023-05-07T09:05:56.971Z,0.90
2023-05-07T09:08:30.910Z,1.00
2023-05-07T09:11:03.277Z,0.70
2023-05-07T09:13:36.896Z,1.20
2023-05-07T09:16:13.035Z,1.30
2023-05-07T09:18:50.135Z,0.90
2023-05-07T09:21:22.571Z,0.70
2023-05-07T09:23:56.335Z,0.90
2023-05-07T09:26:31.769Z,1.00
2023-05-07T09:29:05.175Z,0.90
2023-05-07T09:31:39.706Z,1.00
2023-05-07T09:34:09.259Z,1.10
2023-05-07T09:36:41.259Z,0.90
2023-05-07T09:39:11.198Z,0.70
2023-05-07T09:41:53.863Z,0.80
2023-05-07T09:44:29.679Z,0.80
2023-05-07T09:46:59.023Z,0.90
2023-05-07T09:49:44.907Z,0.80
2023-05-07T09:52:12.772Z,0.90
2023-05-07T09:54:47.239Z,1.60
2023-05-07T09:57:22.666Z,1.40
2023-05-07T09:59:53.868Z,1.50
2023-05-07T10:02:21.499Z,0.80
2023-05-07T10:04:52.876Z,1.30
2023-05-07T10:07:24.260Z,0.90
2023-05-07T10:09:53.890Z,0.90
2023-05-07T10:12:30.574Z,0.80
2023-05-07T10:14:58.927Z,0.80
2023-05-07T10:17:26.421Z,0.90
2023-05-07T10:20:04.417Z,0.70
2023-05-07T10:22:44.213Z,0.70
2023-05-07T10:30:08.150Z,0.80
2023-05-07T10:32:42.107Z,0.80
2023-05-07T10:35:30.684Z,1.20
2023-05-07T10:37:58.870Z,0.90
2023-05-07T10:40:27.572Z,1.30
2023-05-07T10:43:00.765Z,0.70
2023-05-07T10:45:31.737Z,1.10
2023-05-07T10:48:29.763Z,0.80
2023-05-07T10:51:22.170Z,0.70
2023-05-07T10:54:16.144Z,0.90
2023-05-07T10:56:52.707Z,0.70
2023-05-07T10:59:34.607Z,0.80
2023-05-07T11:02:10.811Z,0.90
2023-05-07T11:04:45.983Z,0.80
2023-05-07T11:07:24.015Z,0.80
2023-05-07T11:10:02.388Z,1.00
2023-05-07T11:12:50.064Z,0.70
2023-05-07T11:15:43.866Z,0.90
2023-05-07T11:18:26.765Z,0.80
2023-05-07T11:20:57.895Z,0.60
2023-05-07T11:23:56.122Z,1.00
2023-05-07T11:26:50.388Z,0.80
2023-05-07T11:29:34.487Z,0.80
2023-05-07T11:32:16.778Z,0.90
2023-05-07T11:35:13.745Z,0.80
2023-05-07T11:37:42.641Z,0.70
2023-05-07T11:42:45.375Z,0.90
2023-05-07T11:45:21.577Z,0.70
2023-05-07T11:47:50.527Z,0.70
2023-05-07T11:50:18.496Z,1.00
2023-05-07T11:52:54.467Z,1.20
2023-05-07T11:55:25.743Z,0.80
2023-05-07T11:57:53.405Z,2.80
2023-05-07T12:00:20.670Z,1.50
2023-05-07T12:02:50.740Z,1.00
2023-05-07T12:05:21.003Z,1.10
2023-05-07T12:07:53.745Z,1.00
2023-05-07T12:10:42.488Z,0.80
2023-05-07T12:13:22.395Z,1.20
2023-05-07T12:19:47.692Z,1.00
2023-05-07T12:24:15.184Z,0.90
2023-05-07T12:31:34.120Z,0.60
2023-05-07T12:34:24.725Z,0.90
2023-05-07T12:37:15.568Z,0.90
2023-05-07T12:40:47.817Z,0.90
2023-05-07T12:43:21.759Z,0.80
2023-05-07T12:46:03.266Z,1.00
2023-05-07T12:48:30.562Z,1.00
2023-05-07T12:51:01.910Z,0.80
2023-05-07T12:53:42.537Z,0.80
2023-05-07T12:56:19.504Z,0.70
2023-05-07T12:58:49.351Z,0.60
2023-05-07T13:02:02.005Z,0.80
2023-05-07T13:04:34.251Z,0.70
2023-05-07T13:07:02.960Z,0.80
2023-05-07T13:09:51.963Z,0.90
2023-05-07T13:12:21.008Z,0.90
2023-05-07T13:14:49.069Z,0.90
2023-05-07T13:17:37.986Z,0.80
2023-05-07T13:20:26.277Z,0.80
2023-05-07T13:22:56.527Z,0.70
2023-05-07T13:25:24.972Z,0.80
2023-05-07T13:28:03.051Z,0.80
2023-05-07T13:30:49.582Z,0.70
2023-05-07T13:33:21.705Z,0.80
2023-05-07T13:35:53.710Z,0.70
2023-05-07T13:38:27.296Z,0.60
2023-05-07T13:41:16.649Z,0.60
2023-05-07T13:44:29.019Z,0.90
2023-05-07T13:47:05.615Z,0.80
2023-05-07T13:49:34.463Z,0.70
2023-05-07T13:52:04.907Z,0.80
2023-05-07T13:54:32.282Z,0.50
2023-05-07T13:56:59.844Z,0.70
2023-05-07T13:59:30.182Z,0.70
2023-05-07T14:02:02.795Z,0.90
2023-05-07T14:04:31.877Z,0.90
2023-05-07T14:07:02.283Z,0.70
2023-05-07T14:09:30.896Z,0.80
2023-05-07T14:12:06.037Z,0.90
2023-05-07T14:14:44.626Z,0.70
2023-05-07T14:17:13.860Z,0.80
2023-05-07T14:19:51.560Z,0.90
2023-05-07T14:22:19.073Z,0.90
2023-05-07T14:24:53.064Z,1.10
2023-05-07T14:27:38.228Z,1.10
2023-05-07T14:30:11.990Z,0.80
2023-05-07T14:32:40.432Z,0.80
2023-05-07T14:35:14.136Z,1.00
2023-05-07T14:37:59.239Z,1.10
2023-05-07T14:40:37.384Z,0.90
2023-05-07T14:43:08.585Z,0.90
2023-05-07T14:48:28.398Z,1.00
2023-05-07T14:50:59.174Z,1.10
2023-05-07T14:54:06.670Z,1.00
2023-05-07T14:56:56.755Z,1.50
2023-05-07T14:59:44.444Z,1.10
2023-05-07T15:02:58.912Z,1.10
2023-05-07T15:05:49.304Z,1.10
2023-05-07T15:08:37.622Z,1.20
2023-05-07T15:11:15.299Z,1.90
2023-05-07T15:14:06.038Z,1.20
2023-05-07T15:16:56.636Z,1.00
2023-05-07T15:19:44.654Z,1.30
2023-05-07T15:22:41.502Z,1.00
2023-05-07T15:25:12.161Z,1.20
2023-05-07T15:27:47.548Z,1.20
2023-05-07T15:30:15.518Z,1.30
2023-05-07T15:33:05.453Z,0.90
2023-05-07T15:36:13.139Z,1.00
2023-05-07T15:38:44.513Z,1.30
2023-05-07T15:41:12.825Z,1.40
2023-05-07T15:44:09.884Z,1.10
2023-05-07T15:46:42.002Z,1.10
2023-05-07T15:49:39.500Z,0.70
2023-05-07T15:52:11.295Z,0.90
2023-05-07T15:54:50.618Z,1.10
2023-05-07T15:57:49.135Z,1.50
2023-05-07T16:00:30.307Z,0.90
2023-05-07T16:03:00.002Z,1.10
2023-05-07T16:06:01.805Z,0.90
2023-05-07T16:08:49.087Z,0.70
2023-05-07T16:11:37.126Z,0.90
2023-05-07T16:14:17.071Z,0.90
2023-05-07T16:17:02.717Z,0.90
2023-05-07T16:20:16.585Z,1.30
2023-05-07T16:23:07.220Z,1.60
2023-05-07T16:26:01.168Z,1.20
2023-05-07T16:28:56.967Z,0.90
2023-05-07T16:32:16.864Z,0.80
2023-05-07T16:35:05.107Z,0.90
2023-05-07T16:37:56.002Z,1.20
2023-05-07T16:41:28.446Z,1.00
2023-05-07T16:44:44.782Z,0.70
2023-05-07T16:47:19.026Z,1.10
2023-05-07T16:50:00.551Z,0.70
2023-05-07T16:53:17.791Z,0.80
2023-05-07T16:56:11.269Z,0.70
2023-05-07T16:58:46.277Z,0.50
2023-05-07T17:01:33.326Z,0.80
2023-05-07T17:04:29.659Z,0.60
2023-05-07T17:07:20.207Z,0.60
2023-05-07T17:10:15.887Z,1.00
2023-05-07T17:12:44.120Z,0.80
2023-05-07T17:15:34.222Z,0.80
2023-05-07T17:18:07.912Z,1.10
2023-05-07T17:21:14.704Z,1.10
2023-05-07T17:23:56.895Z,1.10
2023-05-07T17:26:31.647Z,1.20
2023-05-07T17:29:38.074Z,1.20
2023-05-07T17:32:07.783Z,1.40
2023-05-07T17:35:01.351Z,1.30
2023-05-07T17:37:33.234Z,1.40
2023-05-07T17:40:03.641Z,1.20
2023-05-07T17:43:42.167Z,1.50
2023-05-07T17:47:13.985Z,1.20
2023-05-07T17:50:10.411Z,1.00
2023-05-07T17:53:15.796Z,1.60
2023-05-07T18:00:10.577Z,1.50
2023-05-07T18:03:00.558Z,1.60
2023-05-07T18:05:40.517Z,1.30
2023-05-07T18:08:38.586Z,1.70
2023-05-07T18:12:02.443Z,1.40
2023-05-07T18:19:18.629Z,1.10
2023-05-07T18:22:36.191Z,1.20
2023-05-07T18:25:06.489Z,1.10
2023-05-07T18:32:39.653Z,1.20
2023-05-07T18:35:09.707Z,1.10
2023-05-07T18:37:49.022Z,1.40
2023-05-07T18:45:04.742Z,0.90
2023-05-07T18:49:04.720Z,0.90
2023-05-07T18:51:45.930Z,0.70
2023-05-07T18:54:40.432Z,0.90
2023-05-07T18:57:48.199Z,0.70
2023-05-07T19:10:00.978Z,0.90
2023-05-07T19:12:56.527Z,1.10
2023-05-07T19:15:51.186Z,1.00
2023-05-07T19:18:19.260Z,1.10
2023-05-07T19:20:49.122Z,1.30
2023-05-07T19:23:18.198Z,0.90
2023-05-07T19:26:10.405Z,0.70
2023-05-07T19:35:18.499Z,0.80
2023-05-07T19:37:47.741Z,0.80
2023-05-07T19:40:23.533Z,0.90
2023-05-07T19:42:53.733Z,0.90
2023-05-07T19:45:21.935Z,1.00
2023-05-07T19:47:53.086Z,0.90
2023-05-07T19:50:38.964Z,0.90
2023-05-07T19:53:33.878Z,0.80
2023-05-07T19:56:20.398Z,0.80
2023-05-07T19:58:51.655Z,1.00
2023-05-07T20:01:23.651Z,0.70
2023-05-07T20:03:56.892Z,0.80
2023-05-07T20:06:24.939Z,0.90
2023-05-07T20:08:55.488Z,0.80
2023-05-07T20:11:25.736Z,0.80
2023-05-07T20:16:24.417Z,0.90
2023-05-07T20:19:10.054Z,0.90
2023-05-07T20:22:00.434Z,0.80
2023-05-07T20:24:52.278Z,0.60
2023-05-07T20:27:24.346Z,0.80
2023-05-07T20:30:51.480Z,0.70
2023-05-07T20:33:21.224Z,0.70
2023-05-07T20:36:07.782Z,0.70
2023-05-07T20:38:36.140Z,0.60
2023-05-07T20:41:09.060Z,0.70
2023-05-07T20:43:56.715Z,0.70
2023-05-07T20:46:27.494Z,0.60
2023-05-07T20:48:56.630Z,0.60
2023-05-07T20:51:31.943Z,0.80
2023-05-07T20:54:41.291Z,0.80
2023-05-07T20:57:10.924Z,0.90
2023-05-07T21:00:17.642Z,0.90
2023-05-07T21:02:47.971Z,1.00
2023-05-07T21:05:24.695Z,0.90
2023-05-07T21:07:57.154Z,0.80
2023-05-07T21:11:07.920Z,0.80
2023-05-07T21:14:00.273Z,0.90
2023-05-07T21:16:32.889Z,0.80
2023-05-07T21:19:09.123Z,0.80
2023-05-07T21:21:37.520Z,0.90
2023-05-07T21:24:28.108Z,0.60
2023-05-07T21:27:18.753Z,0.70
2023-05-07T21:29:46.897Z,0.70
2023-05-07T21:32:15.466Z,0.60
2023-05-07T21:35:04.021Z,0.70
2023-05-07T21:38:02.855Z,0.80
2023-05-07T21:40:39.969Z,0.90
2023-05-07T21:43:50.147Z,0.80
2023-05-07T21:47:15.690Z,0.60
2023-05-07T21:50:12.845Z,0.60
2023-05-07T21:52:41.826Z,0.60
2023-05-07T21:55:48.762Z,0.80
2023-05-07T21:58:36.870Z,0.70
2023-05-07T22:01:12.351Z,0.80
2023-05-07T22:03:43.948Z,0.80
2023-05-07T22:06:40.346Z,0.70
2023-05-07T22:09:12.536Z,0.90
2023-05-07T22:11:49.592Z,1.10
2023-05-07T22:14:34.264Z,0.50
2023-05-07T22:17:01.640Z,0.90
2023-05-07T22:19:36.281Z,1.20
2023-05-07T22:22:17.928Z,0.70
2023-05-07T22:24:47.107Z,0.70
2023-05-07T22:27:34.686Z,0.90
2023-05-07T22:30:13.413Z,0.80
2023-05-07T22:32:49.198Z,0.90
2023-05-07T22:35:18.657Z,0.80
2023-05-07T22:37:54.273Z,1.00
2023-05-07T22:40:24.206Z,0.80
2023-05-07T22:42:57.024Z,0.80
2023-05-07T22:45:40.230Z,0.90
2023-05-07T22:48:07.641Z,0.90
2023-05-07T22:50:41.460Z,0.80
2023-05-07T22:53:09.783Z,1.00
2023-05-07T22:55:38.843Z,0.90
2023-05-07T22:58:07.434Z,0.90
2023-05-07T23:00:39.999Z,0.90
2023-05-07T23:03:09.482Z,1.00
2023-05-07T23:05:40.304Z,0.90
2023-05-07T23:08:28.813Z,0.90
2023-05-07T23:11:05.011Z,0.80
2023-05-07T23:13:32.964Z,0.90
2023-05-07T23:16:09.786Z,0.80
2023-05-07T23:18:48.623Z,0.90
2023-05-07T23:21:16.269Z,0.90
2023-05-07T23:23:43.967Z,1.10
2023-05-07T23:26:47.537Z,1.00
2023-05-07T23:29:21.063Z,1.00
2023-05-07T23:32:12.960Z,0.80
2023-05-07T23:35:02.236Z,0.90
2023-05-07T23:37:30.962Z,0.90
2023-05-07T23:40:00.045Z,1.00
2023-05-07T23:42:29.231Z,0.80
2023-05-07T23:44:57.910Z,1.00
2023-05-07T23:48:00.621Z,0.70
2023-05-07T23:50:49.242Z,1.20
2023-05-07T23:53:21.828Z,0.80
2023-05-07T23:56:01.322Z,1.00
2023-05-07T23:58:29.050Z,0.80
